Time;durP1;ratioP1;P1;durP2;ratioP2;P2;SDS_P1;SDS_P2;PMS_P1;PMS_P2;Temp;Humidity;BMP_temperature;BMP_pressure;BME280_temperature;BME280_humidity;BME280_pressure;Samples;Min_cycle;Max_cycle;Signal;HPM_P1;HPM_P2
2021/08/08 00:01:18;;;;;;;2.90;1.20;;;17.20;99.90;;;;;;4995537;28;20196;-53
2021/08/08 00:03:44;;;;;;;2.03;1.47;;;17.10;99.90;;;;;;4995766;28;20920;-48
2021/08/08 00:06:09;;;;;;;8.50;1.53;;;17.10;99.90;;;;;;4995366;28;20187;-49
2021/08/08 00:08:35;;;;;;;2.10;1.23;;;17.10;99.90;;;;;;4985077;28;20165;-54
2021/08/08 00:11:01;;;;;;;3.33;1.23;;;17.20;99.90;;;;;;4976527;28;20227;-56
2021/08/08 00:13:27;;;;;;;1.40;1.30;;;17.20;99.90;;;;;;4976576;28;20180;-56
2021/08/08 00:15:53;;;;;;;1.93;1.23;;;17.20;99.90;;;;;;4975673;28;20427;-54
2021/08/08 00:18:20;;;;;;;1.63;1.10;;;17.20;99.90;;;;;;4975870;28;20411;-55
2021/08/08 00:20:46;;;;;;;3.40;2.00;;;17.20;99.90;;;;;;4976048;28;20212;-53
2021/08/08 00:23:12;;;;;;;3.87;1.50;;;17.20;99.90;;;;;;4975542;28;20802;-56
2021/08/08 00:25:37;;;;;;;2.07;1.20;;;17.30;99.90;;;;;;4975698;28;20420;-55
2021/08/08 00:28:04;;;;;;;4.63;1.47;;;17.20;99.90;;;;;;4975700;28;20412;-55
2021/08/08 00:30:30;;;;;;;3.53;2.10;;;17.20;99.90;;;;;;4975370;28;20259;-55
2021/08/08 00:32:56;;;;;;;1.80;1.47;;;17.20;99.90;;;;;;4976017;28;20953;-55
2021/08/08 00:35:22;;;;;;;1.87;1.27;;;17.20;99.90;;;;;;4975715;28;20928;-56
2021/08/08 00:37:48;;;;;;;4.27;1.40;;;17.20;99.90;;;;;;4980074;28;20184;-55
2021/08/08 00:40:16;;;;;;;2.07;1.33;;;17.20;99.90;;;;;;4984297;28;20172;-55
2021/08/08 00:42:45;;;;;;;1.23;1.10;;;17.00;99.90;;;;;;4993497;28;20560;-53
2021/08/08 00:45:16;;;;;;;2.53;1.70;;;17.10;99.90;;;;;;4994560;28;20471;-56
2021/08/08 00:47:42;;;;;;;3.43;1.80;;;17.00;99.90;;;;;;4994466;28;20391;-56
2021/08/08 00:50:08;;;;;;;2.50;1.60;;;17.10;99.90;;;;;;4994646;28;20771;-55
2021/08/08 00:52:34;;;;;;;3.00;1.40;;;17.20;99.90;;;;;;4994076;28;20171;-56
2021/08/08 00:55:00;;;;;;;6.30;1.50;;;17.20;99.90;;;;;;4994613;28;20431;-55
2021/08/08 00:57:26;;;;;;;4.93;1.53;;;17.10;99.90;;;;;;4994608;28;20415;-56
2021/08/08 00:59:51;;;;;;;2.50;1.40;;;17.10;99.90;;;;;;4994855;28;20180;-56
2021/08/08 01:02:20;;;;;;;4.50;1.40;;;17.20;99.90;;;;;;4994227;28;20193;-56
2021/08/08 01:04:55;;;;;;;2.40;1.53;;;17.20;99.90;;;;;;4994929;28;20236;-55
2021/08/08 01:07:26;;;;;;;2.80;1.50;;;17.20;99.90;;;;;;4994702;28;20884;-56
2021/08/08 01:09:54;;;;;;;1.93;1.40;;;17.30;99.90;;;;;;4956015;28;20770;-56
2021/08/08 01:12:20;;;;;;;2.57;1.23;;;17.20;99.90;;;;;;4955876;28;20432;-53
2021/08/08 01:14:47;;;;;;;4.33;1.53;;;17.20;99.90;;;;;;4955832;28;20528;-55
2021/08/08 01:17:15;;;;;;;2.10;1.00;;;17.10;99.90;;;;;;4955432;28;20859;-54
2021/08/08 01:19:51;;;;;;;5.50;1.40;;;17.10;99.90;;;;;;4955916;28;20424;-54
2021/08/08 01:22:18;;;;;;;2.63;1.47;;;17.10;99.90;;;;;;4955821;28;20432;-49
2021/08/08 01:24:45;;;;;;;1.50;1.00;;;17.30;99.90;;;;;;4953964;29;20464;-56
2021/08/08 01:27:12;;;;;;;1.73;1.00;;;17.30;99.90;;;;;;4955561;28;20492;-56
2021/08/08 01:29:38;;;;;;;1.50;1.20;;;17.20;99.90;;;;;;4955827;28;20409;-56
2021/08/08 01:32:04;;;;;;;3.00;1.60;;;17.20;99.90;;;;;;4955422;28;20500;-48
2021/08/08 01:34:30;;;;;;;2.73;1.17;;;17.10;99.90;;;;;;4955379;29;20545;-55
2021/08/08 01:36:55;;;;;;;2.07;1.20;;;17.10;99.90;;;;;;4955345;29;20509;-56
2021/08/08 01:39:22;;;;;;;1.53;0.90;;;17.00;99.90;;;;;;4972639;28;20184;-55
2021/08/08 01:41:57;;;;;;;2.43;1.30;;;17.10;99.90;;;;;;4974841;28;20193;-47
2021/08/08 01:44:25;;;;;;;1.83;1.30;;;17.30;99.90;;;;;;4974831;28;20901;-48
2021/08/08 01:46:55;;;;;;;1.20;0.70;;;17.40;99.90;;;;;;4974582;28;20511;-46
2021/08/08 01:49:26;;;;;;;3.00;1.03;;;17.50;99.90;;;;;;4975634;28;20447;-55
2021/08/08 01:51:53;;;;;;;1.97;1.10;;;17.40;99.90;;;;;;4974772;28;20407;-53
2021/08/08 01:54:19;;;;;;;5.23;1.40;;;17.40;99.90;;;;;;4974721;28;20498;-52
2021/08/08 01:56:46;;;;;;;1.67;1.20;;;17.40;99.90;;;;;;4975775;28;20408;-53
2021/08/08 01:59:13;;;;;;;2.37;1.03;;;17.30;99.90;;;;;;4974683;28;20400;-56
2021/08/08 02:01:39;;;;;;;3.47;1.33;;;17.30;99.90;;;;;;4973991;28;20450;-55
2021/08/08 02:04:19;;;;;;;2.10;1.07;;;17.20;99.90;;;;;;4975467;28;20404;-55
2021/08/08 02:06:45;;;;;;;1.63;0.80;;;17.20;99.90;;;;;;4978888;28;20387;-56
2021/08/08 02:09:11;;;;;;;1.10;1.00;;;17.20;99.90;;;;;;4978092;28;20900;-56
2021/08/08 02:11:37;;;;;;;1.63;1.20;;;17.20;99.90;;;;;;4978598;28;20400;-49
2021/08/08 02:14:03;;;;;;;1.90;1.13;;;17.20;99.90;;;;;;4978920;28;20183;-48
2021/08/08 02:16:31;;;;;;;1.33;1.20;;;17.20;99.90;;;;;;4978150;28;20203;-48
2021/08/08 02:18:56;;;;;;;1.93;0.90;;;17.10;99.90;;;;;;4978621;28;20415;-51
2021/08/08 02:21:22;;;;;;;2.83;1.23;;;17.10;99.90;;;;;;4978023;28;20476;-48
2021/08/08 02:23:47;;;;;;;4.33;1.43;;;17.00;99.90;;;;;;4976619;28;20204;-56
2021/08/08 02:26:13;;;;;;;2.57;1.10;;;17.00;99.90;;;;;;4978227;28;20193;-55
2021/08/08 02:28:38;;;;;;;1.63;1.33;;;16.90;99.90;;;;;;4977915;28;20169;-55
2021/08/08 02:31:04;;;;;;;2.40;1.10;;;16.80;99.90;;;;;;4977675;28;20255;-56
2021/08/08 02:33:30;;;;;;;3.67;1.30;;;16.80;99.90;;;;;;4978409;28;20616;-55
2021/08/08 02:35:56;;;;;;;1.20;1.10;;;16.80;99.90;;;;;;4978076;28;20292;-55
2021/08/08 02:38:22;;;;;;;2.13;1.03;;;16.80;99.90;;;;;;4977676;28;20411;-52
2021/08/08 02:40:47;;;;;;;2.17;1.17;;;16.80;99.90;;;;;;4977913;28;20204;-54
2021/08/08 02:43:13;;;;;;;2.03;1.30;;;16.80;99.90;;;;;;4977610;28;20219;-56
2021/08/08 02:45:38;;;;;;;3.37;1.23;;;16.80;99.90;;;;;;4977699;28;20775;-55
2021/08/08 02:48:04;;;;;;;1.87;1.10;;;16.80;99.90;;;;;;4977401;28;20166;-56
2021/08/08 02:50:30;;;;;;;4.23;1.17;;;16.70;99.90;;;;;;4977883;28;20168;-53
2021/08/08 02:52:56;;;;;;;1.67;1.00;;;16.70;99.90;;;;;;4977510;28;20475;-56
2021/08/08 02:55:21;;;;;;;1.40;1.03;;;16.60;99.90;;;;;;4977368;28;20223;-55
2021/08/08 02:57:47;;;;;;;1.33;0.97;;;16.60;99.90;;;;;;4977948;28;20177;-56
2021/08/08 03:00:13;;;;;;;2.83;1.20;;;16.50;99.90;;;;;;4977555;28;20633;-56
2021/08/08 03:02:39;;;;;;;1.30;1.00;;;16.50;99.90;;;;;;4977228;28;20452;-55
2021/08/08 03:05:05;;;;;;;1.93;1.40;;;16.40;99.90;;;;;;4977198;28;20183;-55
2021/08/08 03:07:30;;;;;;;1.30;1.10;;;16.50;99.90;;;;;;4977699;28;20184;-56
2021/08/08 03:09:56;;;;;;;2.50;1.60;;;16.40;99.90;;;;;;4977035;28;20414;-55
2021/08/08 03:12:22;;;;;;;1.43;1.33;;;16.40;99.90;;;;;;4977331;28;20226;-53
2021/08/08 03:14:47;;;;;;;1.80;1.50;;;16.30;99.90;;;;;;4976838;28;20665;-56
2021/08/08 03:17:13;;;;;;;1.47;1.23;;;16.30;99.90;;;;;;4977191;28;20171;-55
2021/08/08 03:19:38;;;;;;;3.43;1.37;;;16.30;99.90;;;;;;4976951;28;20172;-56
2021/08/08 03:22:04;;;;;;;1.97;1.50;;;16.20;99.90;;;;;;4976826;28;20322;-51
2021/08/08 03:24:30;;;;;;;2.00;1.50;;;16.10;99.90;;;;;;4976875;28;20174;-53
2021/08/08 03:26:56;;;;;;;1.70;1.60;;;16.10;99.90;;;;;;4976842;28;20162;-55
2021/08/08 03:29:22;;;;;;;3.00;1.60;;;16.00;99.90;;;;;;4977458;28;20167;-53
2021/08/08 03:31:47;;;;;;;1.40;1.27;;;16.00;99.90;;;;;;4981201;28;20426;-47
2021/08/08 03:34:13;;;;;;;2.30;1.47;;;16.10;99.90;;;;;;4990737;28;20229;-48
2021/08/08 03:36:39;;;;;;;1.40;1.20;;;16.00;99.90;;;;;;4996098;28;20634;-53
2021/08/08 03:39:04;;;;;;;1.80;1.17;;;16.10;99.90;;;;;;4982716;28;20176;-53
2021/08/08 03:41:30;;;;;;;3.57;1.63;;;16.10;99.90;;;;;;4976878;28;20367;-47
2021/08/08 03:43:55;;;;;;;3.37;1.20;;;16.20;99.90;;;;;;4978951;28;20238;-56
2021/08/08 03:46:21;;;;;;;2.90;1.47;;;16.20;99.90;;;;;;4976169;28;20199;-55
2021/08/08 03:48:47;;;;;;;3.30;1.43;;;16.20;99.90;;;;;;4976450;28;20236;-55
2021/08/08 03:51:12;;;;;;;2.00;1.67;;;16.20;99.90;;;;;;4976766;28;20175;-50
2021/08/08 03:53:38;;;;;;;3.47;1.30;;;16.20;99.90;;;;;;4976259;28;20258;-56
2021/08/08 03:56:04;;;;;;;1.57;1.47;;;16.10;99.90;;;;;;4976521;28;20326;-56
2021/08/08 03:58:30;;;;;;;3.53;1.50;;;16.20;99.90;;;;;;4976410;28;20178;-55
2021/08/08 04:01:00;;;;;;;3.77;1.77;;;16.30;99.90;;;;;;4976177;28;20410;-56
2021/08/08 04:03:28;;;;;;;5.07;1.70;;;16.30;99.90;;;;;;4976305;28;20423;-53
2021/08/08 04:05:54;;;;;;;2.20;1.40;;;16.20;99.90;;;;;;4976117;28;20476;-56
2021/08/08 04:08:19;;;;;;;1.37;1.27;;;16.00;99.90;;;;;;4976075;28;20910;-55
2021/08/08 04:10:45;;;;;;;1.57;1.20;;;16.00;99.90;;;;;;4976076;28;20170;-55
2021/08/08 04:13:10;;;;;;;1.67;1.40;;;16.00;99.90;;;;;;4976257;28;20192;-53
2021/08/08 04:15:36;;;;;;;1.60;1.50;;;16.00;99.90;;;;;;4975993;28;20196;-55
2021/08/08 04:18:02;;;;;;;2.97;1.50;;;15.90;99.90;;;;;;4975717;28;20168;-56
2021/08/08 04:20:27;;;;;;;2.00;1.30;;;15.90;99.90;;;;;;4975842;28;20654;-55
2021/08/08 04:22:53;;;;;;;5.47;1.73;;;16.00;99.90;;;;;;4976045;28;20602;-55
2021/08/08 04:25:18;;;;;;;2.90;1.20;;;16.00;99.90;;;;;;4975555;28;20655;-56
2021/08/08 04:27:44;;;;;;;1.20;1.10;;;16.00;99.90;;;;;;4975437;28;20250;-56
2021/08/08 04:30:10;;;;;;;1.20;1.10;;;15.90;99.90;;;;;;4975892;28;20662;-55
2021/08/08 04:32:36;;;;;;;2.73;1.60;;;15.90;99.90;;;;;;4975951;28;20174;-49
2021/08/08 04:35:02;;;;;;;4.60;1.27;;;15.80;99.90;;;;;;4976032;28;20947;-54
2021/08/08 04:37:27;;;;;;;1.70;1.60;;;15.80;99.90;;;;;;4975698;28;20169;-54
2021/08/08 04:39:53;;;;;;;2.60;1.20;;;15.80;99.90;;;;;;4975599;28;20407;-53
2021/08/08 04:42:18;;;;;;;2.93;1.40;;;15.80;99.90;;;;;;4975656;28;20200;-49
2021/08/08 04:44:44;;;;;;;3.33;1.77;;;15.90;99.90;;;;;;4975444;28;20234;-48
2021/08/08 04:47:10;;;;;;;2.33;1.60;;;15.90;99.90;;;;;;5011060;23;20226;-55
2021/08/08 04:49:35;;;;;;;2.40;1.33;;;16.00;99.90;;;;;;5013243;28;20221;-56
2021/08/08 04:52:02;;;;;;;1.97;1.63;;;16.10;99.90;;;;;;5013665;28;20175;-59
2021/08/08 04:54:28;;;;;;;2.17;1.47;;;16.10;99.90;;;;;;5012341;28;20190;-54
2021/08/08 04:56:54;;;;;;;1.87;1.50;;;16.00;99.90;;;;;;5014383;28;20845;-52
2021/08/08 04:59:20;;;;;;;1.87;1.50;;;16.10;99.90;;;;;;5013938;28;20404;-55
2021/08/08 05:01:45;;;;;;;2.07;1.30;;;16.10;99.90;;;;;;5013725;28;20233;-56
2021/08/08 05:04:11;;;;;;;1.90;1.27;;;16.10;99.90;;;;;;5013880;28;20171;-56
2021/08/08 05:06:37;;;;;;;1.40;1.13;;;16.10;99.90;;;;;;5014018;28;20186;-53
2021/08/08 05:09:04;;;;;;;2.03;1.40;;;16.20;99.90;;;;;;5013821;28;20220;-53
2021/08/08 05:11:30;;;;;;;3.50;1.27;;;16.30;99.90;;;;;;5013065;28;20182;-56
2021/08/08 05:13:56;;;;;;;1.33;1.10;;;16.30;99.90;;;;;;5013950;28;20412;-56
2021/08/08 05:16:21;;;;;;;2.20;1.33;;;16.30;99.90;;;;;;5013862;28;20435;-56
2021/08/08 05:18:47;;;;;;;2.27;1.20;;;16.30;99.90;;;;;;5013649;28;20170;-56
2021/08/08 05:21:12;;;;;;;3.60;1.50;;;16.20;99.90;;;;;;5013455;28;20178;-56
2021/08/08 05:23:38;;;;;;;1.33;1.13;;;16.30;99.90;;;;;;5013581;28;20167;-56
2021/08/08 05:26:04;;;;;;;1.07;0.97;;;16.40;99.90;;;;;;5013174;28;20313;-56
2021/08/08 05:28:30;;;;;;;3.13;1.40;;;16.50;99.90;;;;;;5013774;28;20169;-55
2021/08/08 05:30:56;;;;;;;1.07;0.93;;;16.50;99.90;;;;;;5013447;28;20407;-55
2021/08/08 05:33:21;;;;;;;3.83;1.10;;;16.60;99.90;;;;;;5013416;28;20259;-56
2021/08/08 05:35:48;;;;;;;4.70;1.10;;;16.70;99.90;;;;;;5013311;28;20206;-56
2021/08/08 05:38:14;;;;;;;4.20;1.27;;;16.70;99.90;;;;;;5012668;28;20186;-53
2021/08/08 05:40:39;;;;;;;2.23;1.13;;;16.70;99.90;;;;;;5013070;28;20827;-56
2021/08/08 05:43:05;;;;;;;2.83;1.13;;;16.70;99.90;;;;;;5013128;28;20285;-56
2021/08/08 05:45:30;;;;;;;4.40;1.37;;;16.90;99.90;;;;;;5013098;28;20209;-56
2021/08/08 05:47:57;;;;;;;2.63;1.30;;;16.90;99.90;;;;;;5013143;28;20163;-53
2021/08/08 05:50:23;;;;;;;1.53;1.10;;;17.00;99.90;;;;;;5015504;28;20177;-52
2021/08/08 05:52:50;;;;;;;1.87;1.20;;;17.10;99.90;;;;;;5013497;28;20403;-56
2021/08/08 05:55:17;;;;;;;2.30;1.10;;;17.20;99.90;;;;;;5012871;28;20170;-55
2021/08/08 05:57:43;;;;;;;1.77;0.87;;;17.20;99.90;;;;;;5013201;28;21003;-55
2021/08/08 06:00:10;;;;;;;3.63;1.10;;;17.30;99.90;;;;;;5013164;28;20454;-56
2021/08/08 06:02:35;;;;;;;1.47;0.80;;;17.50;99.90;;;;;;5013358;28;20238;-55
2021/08/08 06:05:01;;;;;;;1.60;1.07;;;17.60;99.90;;;;;;5013109;28;20428;-55
2021/08/08 06:07:28;;;;;;;1.77;1.10;;;17.50;99.90;;;;;;5012794;28;20237;-53
2021/08/08 06:09:53;;;;;;;1.10;1.00;;;17.50;99.90;;;;;;5013036;28;20176;-53
2021/08/08 06:12:19;;;;;;;1.10;0.90;;;17.70;99.90;;;;;;5013111;28;20399;-56
2021/08/08 06:14:45;;;;;;;1.33;0.87;;;17.90;99.90;;;;;;5014531;28;20546;-53
2021/08/08 06:17:10;;;;;;;1.80;1.00;;;18.00;99.90;;;;;;5015676;28;20187;-56
2021/08/08 06:19:36;;;;;;;1.57;1.10;;;18.00;99.90;;;;;;5015055;28;20222;-56
2021/08/08 06:22:02;;;;;;;1.37;1.00;;;18.00;99.90;;;;;;5012100;28;20200;-56
2021/08/08 06:24:27;;;;;;;1.70;1.07;;;18.10;99.90;;;;;;5012821;28;20499;-56
2021/08/08 06:26:53;;;;;;;2.80;0.90;;;18.30;99.90;;;;;;5011335;28;20250;-58
2021/08/08 06:29:18;;;;;;;2.00;0.90;;;18.40;99.90;;;;;;5012693;28;20172;-52
2021/08/08 06:31:44;;;;;;;1.70;0.97;;;18.40;99.90;;;;;;5013392;28;20168;-54
2021/08/08 06:34:10;;;;;;;1.80;0.90;;;18.30;99.90;;;;;;5015325;28;20176;-54
2021/08/08 06:36:35;;;;;;;1.43;0.93;;;18.50;99.90;;;;;;5012840;28;20222;-56
2021/08/08 06:39:05;;;;;;;4.30;1.07;;;18.50;99.90;;;;;;5012628;28;20175;-54
2021/08/08 06:41:31;;;;;;;2.40;1.17;;;18.60;99.90;;;;;;5012436;28;20199;-56
2021/08/08 06:43:57;;;;;;;1.60;0.70;;;18.70;99.90;;;;;;5012925;28;20399;-50
2021/08/08 06:46:22;;;;;;;2.13;1.03;;;18.70;99.90;;;;;;5012757;28;20442;-56
2021/08/08 06:48:48;;;;;;;1.60;0.70;;;18.90;99.90;;;;;;5013104;28;20660;-56
2021/08/08 06:51:13;;;;;;;3.40;1.20;;;19.20;99.90;;;;;;5016268;28;20172;-54
2021/08/08 06:53:39;;;;;;;5.33;1.10;;;19.10;99.90;;;;;;5015971;28;20168;-56
2021/08/08 06:56:05;;;;;;;1.73;1.10;;;19.30;99.90;;;;;;5014442;28;20195;-56
2021/08/08 06:58:31;;;;;;;4.73;1.00;;;19.30;99.90;;;;;;5016609;28;20251;-56
2021/08/08 07:00:56;;;;;;;1.43;0.97;;;19.20;99.90;;;;;;5016474;28;20168;-56
2021/08/08 07:03:22;;;;;;;1.07;0.97;;;19.20;99.90;;;;;;5016105;28;20203;-54
2021/08/08 07:05:47;;;;;;;2.20;1.40;;;19.50;99.90;;;;;;5016253;28;20254;-55
2021/08/08 07:08:13;;;;;;;7.23;1.30;;;19.50;99.90;;;;;;5015892;28;20171;-55
2021/08/08 07:10:39;;;;;;;1.13;1.03;;;19.60;99.90;;;;;;5015630;28;20181;-56
2021/08/08 07:13:05;;;;;;;2.27;0.90;;;19.50;99.90;;;;;;5016813;28;20625;-51
2021/08/08 07:15:30;;;;;;;2.30;1.00;;;19.50;99.90;;;;;;5015669;28;20267;-52
2021/08/08 07:17:56;;;;;;;1.87;1.00;;;19.40;99.90;;;;;;5016038;28;20414;-56
2021/08/08 07:20:22;;;;;;;1.00;0.90;;;19.60;99.90;;;;;;5016024;28;20172;-55
2021/08/08 07:22:47;;;;;;;1.83;0.97;;;19.70;99.90;;;;;;5015660;28;20664;-56
2021/08/08 07:25:13;;;;;;;2.50;1.17;;;20.10;99.90;;;;;;5015221;28;20195;-54
2021/08/08 07:27:39;;;;;;;1.77;1.10;;;20.10;99.90;;;;;;5014411;28;20190;-55
2021/08/08 07:30:05;;;;;;;1.50;1.00;;;20.00;99.90;;;;;;5012010;28;20175;-55
2021/08/08 07:32:31;;;;;;;1.60;1.10;;;19.90;99.90;;;;;;5015464;28;20172;-48
2021/08/08 07:34:57;;;;;;;1.83;1.30;;;20.00;99.90;;;;;;5016506;28;20425;-52
2021/08/08 07:37:22;;;;;;;4.27;1.00;;;20.00;99.90;;;;;;5015321;28;20192;-50
2021/08/08 07:39:49;;;;;;;3.40;1.90;;;20.20;99.90;;;;;;5016171;28;20259;-51
2021/08/08 07:42:14;;;;;;;2.23;1.30;;;20.20;99.90;;;;;;5013290;28;20230;-53
2021/08/08 07:44:41;;;;;;;1.67;1.40;;;20.20;99.90;;;;;;5014603;28;21035;-53
2021/08/08 07:47:07;;;;;;;1.10;0.87;;;20.30;99.90;;;;;;5015146;28;20541;-51
2021/08/08 07:49:32;;;;;;;3.37;1.17;;;20.60;99.90;;;;;;5015088;28;20545;-52
2021/08/08 07:51:58;;;;;;;3.27;1.23;;;20.60;99.90;;;;;;5015332;28;20187;-52
2021/08/08 07:54:23;;;;;;;3.70;1.70;;;20.60;99.90;;;;;;5015344;28;20184;-48
2021/08/08 07:56:49;;;;;;;1.97;1.20;;;20.50;99.90;;;;;;5015188;28;20191;-55
2021/08/08 07:59:15;;;;;;;2.43;1.40;;;20.40;99.90;;;;;;5014334;28;20263;-52
2021/08/08 08:01:43;;;;;;;1.60;1.07;;;20.60;99.90;;;;;;5013983;28;20557;-53
2021/08/08 08:04:09;;;;;;;2.27;1.20;;;20.50;99.90;;;;;;5014897;28;20584;-55
2021/08/08 08:06:35;;;;;;;1.40;1.00;;;20.50;99.90;;;;;;5014872;28;20431;-55
2021/08/08 08:09:01;;;;;;;4.67;1.30;;;20.60;99.90;;;;;;5014715;28;20422;-56
2021/08/08 08:11:26;;;;;;;1.20;1.00;;;20.30;99.90;;;;;;5014821;28;20176;-54
2021/08/08 08:13:52;;;;;;;1.70;0.93;;;20.40;99.90;;;;;;5014471;28;20168;-55
2021/08/08 08:16:17;;;;;;;4.47;1.30;;;20.40;99.90;;;;;;5015033;28;20196;-54
2021/08/08 08:18:43;;;;;;;2.90;1.43;;;20.30;99.90;;;;;;5014751;28;20354;-54
2021/08/08 08:21:09;;;;;;;1.53;1.40;;;20.60;99.90;;;;;;5014858;28;20168;-55
2021/08/08 08:23:34;;;;;;;1.50;1.20;;;20.70;99.90;;;;;;5014573;28;20164;-56
2021/08/08 08:26:00;;;;;;;1.90;1.10;;;20.60;99.90;;;;;;5014757;28;20195;-56
2021/08/08 08:28:29;;;;;;;1.00;0.80;;;20.90;99.90;;;;;;5014693;28;20199;-56
2021/08/08 08:30:56;;;;;;;1.87;0.80;;;20.90;99.90;;;;;;5014466;28;20230;-56
2021/08/08 08:33:22;;;;;;;1.90;1.10;;;21.10;99.90;;;;;;5017130;28;20860;-56
2021/08/08 08:35:47;;;;;;;5.80;1.40;;;21.50;99.90;;;;;;5015634;28;20458;-53
2021/08/08 08:38:13;;;;;;;3.53;1.40;;;21.60;99.90;;;;;;5016408;28;20187;-54
2021/08/08 08:40:42;;;;;;;1.50;1.03;;;21.70;99.90;;;;;;5009093;28;20176;-57
2021/08/08 08:43:08;;;;;;;1.30;0.80;;;21.70;99.90;;;;;;5014028;28;20229;-53
2021/08/08 08:45:39;;;;;;;1.30;1.00;;;22.00;99.90;;;;;;5013625;28;20454;-56
2021/08/08 08:48:07;;;;;;;2.60;1.10;;;22.20;99.90;;;;;;5014448;28;20419;-56
2021/08/08 08:50:35;;;;;;;1.70;1.40;;;22.10;99.90;;;;;;5012249;28;20465;-54
2021/08/08 08:53:01;;;;;;;3.53;1.00;;;22.20;99.90;;;;;;5010738;28;20419;-57
2021/08/08 08:55:27;;;;;;;2.80;1.50;;;22.10;99.90;;;;;;5013886;28;20430;-55
2021/08/08 08:57:54;;;;;;;1.53;1.00;;;22.10;99.90;;;;;;5014015;28;20410;-56
2021/08/08 09:00:22;;;;;;;2.60;1.27;;;22.40;99.90;;;;;;5013625;28;20184;-52
2021/08/08 09:02:47;;;;;;;2.70;1.40;;;22.50;99.90;;;;;;5014209;28;20648;-50
2021/08/08 09:05:13;;;;;;;2.73;1.40;;;22.60;99.90;;;;;;5013822;28;20410;-46
2021/08/08 09:07:39;;;;;;;2.70;1.17;;;21.70;99.90;;;;;;5013929;28;20183;-55
2021/08/08 09:10:10;;;;;;;3.60;1.40;;;22.00;99.90;;;;;;5014121;28;20418;-55
2021/08/08 09:12:36;;;;;;;2.03;1.30;;;22.20;99.90;;;;;;5012447;28;20226;-56
2021/08/08 09:15:04;;;;;;;1.70;1.10;;;22.30;99.90;;;;;;5013257;28;20476;-56
2021/08/08 09:17:37;;;;;;;1.90;1.20;;;22.80;99.90;;;;;;5013854;28;20207;-55
2021/08/08 09:20:11;;;;;;;2.50;1.07;;;22.80;99.90;;;;;;5013971;28;20426;-53
2021/08/08 09:22:39;;;;;;;3.00;1.13;;;22.50;99.90;;;;;;5013586;28;20817;-56
2021/08/08 09:25:05;;;;;;;1.87;1.20;;;22.30;99.90;;;;;;5013781;28;20752;-56
2021/08/08 09:27:34;;;;;;;1.50;1.33;;;22.50;99.90;;;;;;5013477;28;20454;-56
2021/08/08 09:30:01;;;;;;;2.87;2.00;;;22.80;99.90;;;;;;5012946;28;20425;-56
2021/08/08 09:32:35;;;;;;;2.40;1.20;;;23.20;99.90;;;;;;5013654;28;20421;-54
2021/08/08 09:35:09;;;;;;;1.83;1.20;;;23.10;99.90;;;;;;5008387;28;20433;-55
2021/08/08 09:37:35;;;;;;;1.87;1.00;;;22.80;99.90;;;;;;5013707;28;20933;-56
2021/08/08 09:40:02;;;;;;;2.07;1.53;;;23.10;99.90;;;;;;5013306;28;20505;-56
2021/08/08 09:42:31;;;;;;;2.50;1.20;;;23.30;99.90;;;;;;5013467;28;20446;-54
2021/08/08 09:45:03;;;;;;;1.43;1.00;;;23.60;99.90;;;;;;5013099;28;20438;-56
2021/08/08 09:47:50;;;;;;;1.87;1.10;;;23.50;99.90;;;;;;5013099;28;20482;-52
2021/08/08 09:50:21;;;;;;;2.67;1.10;;;23.40;99.90;;;;;;5013363;28;20383;-54
2021/08/08 09:53:08;;;;;;;1.70;1.23;;;23.60;99.90;;;;;;5012163;28;20445;-55
2021/08/08 09:55:38;;;;;;;1.77;1.10;;;23.90;99.90;;;;;;5013383;28;20874;-55
2021/08/08 09:58:16;;;;;;;2.10;1.10;;;23.80;99.60;;;;;;5013126;28;20442;-57
2021/08/08 10:00:43;;;;;;;2.23;1.17;;;23.70;99.90;;;;;;4993386;28;20418;-52
2021/08/08 10:03:11;;;;;;;2.63;1.40;;;23.90;99.90;;;;;;4993453;28;20898;-51
2021/08/08 10:05:38;;;;;;;2.50;1.73;;;23.90;99.70;;;;;;4993686;28;20431;-56
2021/08/08 10:08:12;;;;;;;2.37;1.30;;;23.90;98.60;;;;;;4993704;28;20415;-52
2021/08/08 10:10:40;;;;;;;2.17;1.43;;;24.10;99.70;;;;;;4995950;28;20494;-50
2021/08/08 10:13:34;;;;;;;2.80;1.20;;;24.00;98.20;;;;;;5013096;28;20422;-50
2021/08/08 10:16:04;;;;;;;1.90;1.60;;;24.00;99.10;;;;;;5012986;28;20958;-51
2021/08/08 10:18:36;;;;;;;2.60;1.13;;;23.80;99.00;;;;;;5013170;28;20812;-55
2021/08/08 10:21:02;;;;;;;2.17;1.40;;;24.10;99.60;;;;;;5012971;28;20392;-56
2021/08/08 10:23:31;;;;;;;4.00;1.57;;;24.30;99.90;;;;;;5015364;28;20905;-54
2021/08/08 10:25:57;;;;;;;2.07;1.20;;;24.10;98.10;;;;;;5015341;28;20238;-54
2021/08/08 10:28:23;;;;;;;2.63;1.20;;;23.90;98.50;;;;;;5016992;28;20915;-53
2021/08/08 10:30:49;;;;;;;2.50;1.20;;;23.60;99.10;;;;;;5016076;28;20254;-56
2021/08/08 10:33:15;;;;;;;1.70;1.40;;;23.70;99.90;;;;;;5015706;28;20419;-56
2021/08/08 10:35:43;;;;;;;6.13;1.70;;;23.40;98.80;;;;;;5016673;28;20514;-54
2021/08/08 10:38:09;;;;;;;2.60;2.40;;;23.20;99.90;;;;;;5016735;28;20180;-56
2021/08/08 10:40:37;;;;;;;2.50;1.80;;;23.20;97.80;;;;;;5016864;28;20402;-55
2021/08/08 10:43:05;;;;;;;2.87;1.20;;;23.40;98.30;;;;;;5016373;28;20461;-56
2021/08/08 10:45:33;;;;;;;2.87;1.43;;;23.80;98.40;;;;;;5016209;28;20512;-55
2021/08/08 10:48:04;;;;;;;1.60;1.00;;;24.10;97.90;;;;;;5016278;28;20406;-56
2021/08/08 10:50:40;;;;;;;4.03;1.40;;;23.80;97.60;;;;;;5016585;28;20439;-56
2021/08/08 10:53:17;;;;;;;2.93;1.40;;;23.80;98.60;;;;;;5016523;28;20406;-53
2021/08/08 10:55:43;;;;;;;4.50;1.50;;;23.50;98.20;;;;;;5016551;28;20938;-56
2021/08/08 10:58:14;;;;;;;1.80;1.10;;;23.40;98.90;;;;;;5042888;23;20498;-53
2021/08/08 11:00:41;;;;;;;2.93;1.60;;;23.40;98.40;;;;;;5016074;28;20168;-58
2021/08/08 11:03:13;;;;;;;3.57;0.90;;;23.90;98.60;;;;;;5015044;28;21007;-57
2021/08/08 11:05:39;;;;;;;4.10;1.47;;;24.70;96.10;;;;;;5016725;28;20450;-57
2021/08/08 11:08:10;;;;;;;3.93;1.23;;;26.10;94.30;;;;;;5015479;28;20798;-57
2021/08/08 11:10:41;;;;;;;1.93;1.20;;;26.90;93.10;;;;;;5015422;28;20168;-57
2021/08/08 11:13:18;;;;;;;1.70;1.10;;;27.80;91.60;;;;;;5015749;28;20421;-55
2021/08/08 11:15:44;;;;;;;2.17;1.00;;;28.20;91.20;;;;;;5015966;28;20776;-55
2021/08/08 11:18:10;;;;;;;1.17;0.90;;;29.80;85.80;;;;;;5016170;28;20419;-57
2021/08/08 11:20:36;;;;;;;3.27;0.80;;;30.50;82.10;;;;;;5015924;28;20196;-57
2021/08/08 11:23:03;;;;;;;2.00;1.17;;;30.20;83.00;;;;;;5015617;28;20474;-54
2021/08/08 11:25:40;;;;;;;1.40;0.93;;;29.90;79.50;;;;;;5016199;28;20247;-57
2021/08/08 11:28:07;;;;;;;1.30;1.00;;;30.40;79.10;;;;;;5015438;28;20446;-56
2021/08/08 11:30:44;;;;;;;1.23;0.90;;;30.40;75.20;;;;;;5014228;28;20939;-54
2021/08/08 11:33:11;;;;;;;1.60;1.23;;;29.40;79.50;;;;;;5015636;28;20411;-55
2021/08/08 11:35:38;;;;;;;1.93;1.10;;;27.70;81.10;;;;;;5015473;28;20426;-56
2021/08/08 11:38:19;;;;;;;2.03;1.10;;;27.10;85.20;;;;;;5015620;28;20845;-58
2021/08/08 11:40:47;;;;;;;1.40;1.00;;;27.00;86.30;;;;;;5015749;28;20412;-58
2021/08/08 11:43:14;;;;;;;2.50;1.10;;;26.30;86.70;;;;;;5002830;28;20443;-56
2021/08/08 11:45:45;;;;;;;1.57;1.00;;;26.20;88.90;;;;;;4991826;28;20420;-54
2021/08/08 11:48:12;;;;;;;1.30;1.00;;;26.00;86.00;;;;;;4996096;28;20518;-56
2021/08/08 11:50:39;;;;;;;3.27;1.20;;;25.60;89.80;;;;;;4996586;28;20404;-55
2021/08/08 11:53:07;;;;;;;3.80;1.30;;;25.10;90.90;;;;;;4995928;28;20403;-55
2021/08/08 11:55:34;;;;;;;2.60;1.30;;;24.80;91.40;;;;;;4999882;28;20404;-56
2021/08/08 11:58:09;;;;;;;2.20;1.60;;;24.70;93.40;;;;;;4999407;28;20552;-53
2021/08/08 12:00:44;;;;;;;1.83;1.37;;;24.60;92.00;;;;;;5015007;28;20434;-55
2021/08/08 12:03:10;;;;;;;3.30;1.30;;;24.70;92.00;;;;;;5015012;28;20472;-56
2021/08/08 12:05:37;;;;;;;2.57;1.10;;;24.50;90.50;;;;;;5015256;28;20483;-56
2021/08/08 12:08:07;;;;;;;2.00;1.40;;;24.50;91.10;;;;;;5014987;28;20326;-55
2021/08/08 12:10:37;;;;;;;1.43;1.33;;;24.50;92.50;;;;;;5015605;28;20406;-56
2021/08/08 12:13:15;;;;;;;3.90;1.13;;;23.90;91.80;;;;;;5014841;28;20494;-55
2021/08/08 12:15:40;;;;;;;3.30;1.50;;;23.00;91.80;;;;;;5014791;28;20388;-52
2021/08/08 12:18:06;;;;;;;1.30;0.80;;;22.00;91.70;;;;;;5015101;28;20430;-52
2021/08/08 12:20:36;;;;;;;1.93;1.10;;;21.80;91.80;;;;;;5011743;28;20172;-54
2021/08/08 12:23:08;;;;;;;2.80;0.90;;;;;;;;;;5014892;28;20192;-56
2021/08/08 12:25:34;;;;;;;2.47;1.00;;;23.70;89.90;;;;;;5014849;28;20422;-57
2021/08/08 12:27:59;;;;;;;2.00;1.10;;;25.30;86.90;;;;;;5004241;28;20949;-55
2021/08/08 12:30:27;;;;;;;4.33;0.90;;;26.20;81.30;;;;;;4992480;28;20408;-56
2021/08/08 12:33:09;;;;;;;1.43;0.70;;;26.00;82.60;;;;;;4995135;28;20260;-56
2021/08/08 12:35:40;;;;;;;4.33;1.00;;;25.80;83.40;;;;;;4995261;28;20434;-57
2021/08/08 12:38:06;;;;;;;1.10;0.70;;;26.00;81.30;;;;;;4995026;28;20511;-55
2021/08/08 12:40:58;;;;;;;1.10;0.73;;;26.60;83.90;;;;;;4994921;28;20495;-53
2021/08/08 12:43:26;;;;;;;1.97;0.90;;;27.90;78.50;;;;;;5010455;28;20460;-56
2021/08/08 12:45:53;;;;;;;1.47;0.80;;;28.70;74.70;;;;;;5013976;28;20403;-54
2021/08/08 12:48:30;;;;;;;1.37;1.10;;;29.30;74.30;;;;;;5013815;28;20422;-54